Relevés horaires Grono (Suisse)


Relevés horaires à Grono - Mardi 18 Sept. 2018
Heure UTC1 Température [°C] Vent [km/h] Hum. [%] Pres.4 [hPa] Visi. [Km] Nébu. [octa] Préc.5 [mm] Cond.
2m. Res. Ros. Dir.2 Vit. Moy. Raf.3
23:00 17.5 17.5 16.6 N 7.4 -- -- 94 1021.5 -- -- -- --
22:00 17.4 17.4 16.6 N 5.6 -- -- 95 1021.1 -- -- -- --
21:00 17.4 17.4 16.6 NO 1.9 -- 9.3 95 1020.9(1.6/3h) -- -- -- --
20:00 18.5 18.5 17.2 NNE 3.7 -- -- 92 1020.6 -- -- -- --
19:00 19.3 19.3 17.5 E 1.9 -- -- 89 1019.9 -- -- -- --
18:00 19.6 19.6 17.4 NNO 3.7 -- 27.8 87 1018.9(0.8/3h) -- -- 0.1/12h
--
17:00 21.3 21.3 17.7 N 11.1 -- -- 80 1018.2 -- -- -- --
16:00 24.6 24.6 16.6 S 3.7 -- -- 61 1017.6 -- -- -- --
15:00 24.9 24.9 16.4 S 5.6 -- 18.5 59 1017.4(-1.9/3h) -- -- -- --
14:00 24.7 24.7 17.1 SSO 7.4 -- -- 63 1017.6 -- -- -- --
13:00 24.5 24.5 15.9 NNO 7.4 -- -- 59 1018.4 -- -- -- --
12:00 22.5 22.5 16.3 N 7.4 -- 13.0 68 1019.7(-1.1/3h) -- -- 0.1/6h
--
11:00 20.6 20.6 16.9 S 1.9 -- -- 79 1020.7 -- -- -- --
10:00 20.0 20.0 16.5 S 1.9 -- -- 80 1020.9 -- -- -- --
09:00 19.2 19.2 17.2 S 5.6 -- 11.1 88 1021.3(0.2/3h) -- -- -- --
08:00 19.0 19.0 16.8 O 1.9 -- -- 87 1021.3 -- -- -- --
07:00 17.5 17.5 17.1 N 7.4 -- -- 98 1021.3 -- -- -- --
06:00 16.7 16.7 16.5 N 9.3 -- 11.1 99 1021.4(0.4/3h) -- -- 0/12h
0/24h
--
05:00 15.6 15.6 15.4 NNE 1.9 -- -- 99 1021.4 -- -- -- --
04:00 16.3 16.3 16.0 NE 1.9 -- -- 98 1021 -- -- -- --
03:00 17.0 17.0 16.6 S 1.9 -- 7.4 97 1020.9(-0.4/3h) -- -- -- --
02:00 17.4 17.4 17.0 N 1.9 -- -- 98 1020.8 -- -- -- --
01:00 17.5 17.5 17.0 OSO 0.0 -- -- 97 1021.2 -- -- -- --
00:00 17.8 17.8 17.1 NNE 1.9 -- 11.1 96 1021.3(0.0/3h) -- -- 0/6h
--

1 Coordinated Universal Time. Actuellement il est 19:00 locale et 17:00 UTC.

2 Le vent souffle depuis la direction indiquée vers la direction oposée.

3 Les rafales max. sont disponible 40 min après l'heure du relevé.

4 Pour les stations d'altitude (plus de 600m) le géopotentiel du niveau le plus proche de la pression obligatoire est indiqué.

5 Les stations disposant d'un diffuseur peuvent indiquer "trace". Cela signifie que des précipitations ont touchés le sol mais que la quantité est inférieure à 0.1 mm.

Récapitulatif de la journée
Température [°C] Vent [km/h] Ensoleillement4 [h] Precipitations totale5 [mm] Pression [Hpa]
Min1 Max.2 Moy.3 Max. Min Max.
15.6 25.0 0 27.8 4 h 6 min 0.1 1017.4 1021.5

1 Température minimale relevée entre 18:00 UTC la veille et 18:00 UTC le jour donné.

2 Température maximale relevée entre 06:00 UTC le jour donné et 06:00 UTC le lendemain.

3 Vent moyen de la journée basé sur les relevés horaires.

4 Ensoleillement en heures relevé entre 06:00 UTC la veille et 06:00 UTC le jour donné.

5 Précipitations totales tombées entre 06:00 UTC la jour donné et 06:00 UTC le lendemain.

Graphiques horaires